PWSweather.com
Personal Weather Stations
Station Observations

Acton, CA 93510

Lat: 34.47703, Lon: -118.17483

Elevation: 2900

Station Type: Davis Vantage Pro 2

http://www.actonastro.com/weather/current.php

Latest ConditionsUpdated 4:25:46 PM PDT Monday, Sep 1, 2014
Currently Today's Max Today's Min Today's Average
Temperature 89.3°F31.8°C 91.6°F33.1°C 58.3°F14.6°C 74.0°F23.3°C
Dew Point 41.6°F5.3°C 50.1°F10.1°C 31.3°F-0.4°C 40.7°F4.8°C
Winds 8.0 mph NW12.9 kmh NW 11.0 mph WSW17.7 kmh WSW - 3.0 mph 4.8 kmh
Wind Gusts 17.0 mph27.4 kmh 17.0 mph27.4 kmh - -
Humidity 19% 55% 13% 34%
Pressure 29.60 in1002.4 mb 29.67 in1004.7 mb 29.59 in1002.0 mb -
Hour Temp Dew Point Humidity Winds Wind Gusts Pressure Precip Precip Rate Daily Precip Total
04:25 PM 89.3°F31.8°C 41.6°F5.3°C 19% 8.0 mph NW12.9 kmh NW 17.0 mph27.4 kmh 29.60 in1002.4 mb 0.00 in0.0 mm 0.00 in/hr0.0 mm/hr 0.00 in0.0 mm
04:20 PM 89.5°F31.9°C 41.8°F5.4°C 19% 10.0 mph W16.1 kmh W 16.0 mph25.7 kmh 29.60 in1002.4 mb 0.00 in0.0 mm 0.00 in/hr0.0 mm/hr 0.00 in0.0 mm
04:15 PM 89.7°F32.1°C 43.3°F6.3°C 20% 10.0 mph W16.1 kmh W 17.0 mph27.4 kmh 29.60 in1002.4 mb 0.00 in0.0 mm 0.00 in/hr0.0 mm/hr 0.00 in0.0 mm
04:10 PM 89.7°F32.1°C 43.3°F6.3°C 20% 9.0 mph WNW14.5 kmh WNW 17.0 mph27.4 kmh 29.60 in1002.4 mb 0.00 in0.0 mm 0.00 in/hr0.0 mm/hr 0.00 in0.0 mm
04:05 PM 89.9°F32.2°C 45.9°F7.7°C 22% 9.0 mph NW14.5 kmh NW 17.0 mph27.4 kmh 29.60 in1002.4 mb 0.00 in0.0 mm 0.00 in/hr0.0 mm/hr 0.00 in0.0 mm
04:00 PM 89.9°F32.2°C 44.7°F7.1°C 21% 6.0 mph WSW9.7 kmh WSW 17.0 mph27.4 kmh 29.60 in1002.4 mb 0.00 in0.0 mm 0.00 in/hr0.0 mm/hr 0.00 in0.0 mm
03:55 PM 89.9°F32.2°C 43.4°F6.3°C 20% 11.0 mph W17.7 kmh W 16.0 mph25.7 kmh 29.60 in1002.4 mb 0.00 in0.0 mm 0.00 in/hr0.0 mm/hr 0.00 in0.0 mm
03:50 PM 90.1°F32.3°C 43.6°F6.4°C 20% 9.0 mph W14.5 kmh W 16.0 mph25.7 kmh 29.60 in1002.4 mb 0.00 in0.0 mm 0.00 in/hr0.0 mm/hr 0.00 in0.0 mm
03:45 PM 90.5°F32.5°C 45.2°F7.3°C 21% 11.0 mph W17.7 kmh W 16.0 mph25.7 kmh 29.60 in1002.4 mb 0.00 in0.0 mm 0.00 in/hr0.0 mm/hr 0.00 in0.0 mm
03:40 PM 90.7°F32.6°C 46.6°F8.1°C 22% 9.0 mph NW14.5 kmh NW 17.0 mph27.4 kmh 29.60 in1002.4 mb 0.00 in0.0 mm 0.00 in/hr0.0 mm/hr 0.00 in0.0 mm
03:35 PM 90.7°F32.6°C 45.4°F7.4°C 21% 7.0 mph W11.3 kmh W 17.0 mph27.4 kmh 29.60 in1002.4 mb 0.00 in0.0 mm 0.00 in/hr0.0 mm/hr 0.00 in0.0 mm
03:30 PM 90.7°F32.6°C 45.4°F7.4°C 21% 9.0 mph NW14.5 kmh NW 17.0 mph27.4 kmh 29.60 in1002.4 mb 0.00 in0.0 mm 0.00 in/hr0.0 mm/hr 0.00 in0.0 mm
03:25 PM 90.7°F32.6°C 46.6°F8.1°C 22% 7.0 mph WNW11.3 kmh WNW 17.0 mph27.4 kmh 29.60 in1002.4 mb 0.00 in0.0 mm 0.00 in/hr0.0 mm/hr 0.00 in0.0 mm
03:20 PM 90.7°F32.6°C 46.6°F8.1°C 22% 9.0 mph WNW14.5 kmh WNW 15.0 mph24.1 kmh 29.60 in1002.4 mb 0.00 in0.0 mm 0.00 in/hr0.0 mm/hr 0.00 in0.0 mm
03:15 PM 91.2°F32.9°C 45.8°F7.7°C 21% 11.0 mph WNW17.7 kmh WNW 15.0 mph24.1 kmh 29.60 in1002.4 mb 0.00 in0.0 mm 0.00 in/hr0.0 mm/hr 0.00 in0.0 mm
03:10 PM 91.6°F33.1°C 46.1°F7.8°C 21% 11.0 mph WSW17.7 kmh WSW 15.0 mph24.1 kmh 29.59 in1002.0 mb 0.00 in0.0 mm 0.00 in/hr0.0 mm/hr 0.00 in0.0 mm
03:05 PM 91.6°F33.1°C 46.1°F7.8°C 21% 6.0 mph NW9.7 kmh NW 15.0 mph24.1 kmh 29.59 in1002.0 mb 0.00 in0.0 mm 0.00 in/hr0.0 mm/hr 0.00 in0.0 mm
03:00 PM 91.4°F33.0°C 43.3°F6.3°C 19% 6.0 mph NW9.7 kmh NW 15.0 mph24.1 kmh 29.59 in1002.0 mb 0.00 in0.0 mm 0.00 in/hr0.0 mm/hr 0.00 in0.0 mm
02:55 PM 91.6°F33.1°C 44.8°F7.1°C 20% 9.0 mph W14.5 kmh W 15.0 mph24.1 kmh 29.60 in1002.4 mb 0.00 in0.0 mm 0.00 in/hr0.0 mm/hr 0.00 in0.0 mm
02:50 PM 91.4°F33.0°C 44.6°F7.0°C 20% 10.0 mph NW16.1 kmh NW 14.0 mph22.5 kmh 29.60 in1002.4 mb 0.00 in0.0 mm 0.00 in/hr0.0 mm/hr 0.00 in0.0 mm
02:45 PM 91.0°F32.8°C 44.3°F6.8°C 20% 5.0 mph NW8.0 kmh NW 14.0 mph22.5 kmh 29.60 in1002.4 mb 0.00 in0.0 mm 0.00 in/hr0.0 mm/hr 0.00 in0.0 mm
02:40 PM 91.2°F32.9°C 47.0°F8.3°C 22% 3.0 mph WSW4.8 kmh WSW 14.0 mph22.5 kmh 29.61 in1002.7 mb 0.00 in0.0 mm 0.00 in/hr0.0 mm/hr 0.00 in0.0 mm
02:35 PM 91.2°F32.9°C 44.5°F6.9°C 20% 4.0 mph NW6.4 kmh NW 14.0 mph22.5 kmh 29.61 in1002.7 mb 0.00 in0.0 mm 0.00 in/hr0.0 mm/hr 0.00 in0.0 mm
02:30 PM 91.2°F32.9°C 44.5°F6.9°C 20% 5.0 mph NW8.0 kmh NW 13.0 mph20.9 kmh 29.61 in1002.7 mb 0.00 in0.0 mm 0.00 in/hr0.0 mm/hr 0.00 in0.0 mm
02:25 PM 91.2°F32.9°C 44.5°F6.9°C 20% 5.0 mph WSW8.0 kmh WSW 15.0 mph24.1 kmh 29.61 in1002.7 mb 0.00 in0.0 mm 0.00 in/hr0.0 mm/hr 0.00 in0.0 mm
02:20 PM 91.2°F32.9°C 43.1°F6.2°C 19% 6.0 mph W9.7 kmh W 15.0 mph24.1 kmh 29.61 in1002.7 mb 0.00 in0.0 mm 0.00 in/hr0.0 mm/hr 0.00 in0.0 mm
02:15 PM 91.4°F33.0°C 43.3°F6.3°C 19% 3.0 mph WSW4.8 kmh WSW 15.0 mph24.1 kmh 29.61 in1002.7 mb 0.00 in0.0 mm 0.00 in/hr0.0 mm/hr 0.00 in0.0 mm
02:10 PM 91.2°F32.9°C 43.1°F6.2°C 19% 5.0 mph W8.0 kmh W 15.0 mph24.1 kmh 29.61 in1002.7 mb 0.00 in0.0 mm 0.00 in/hr0.0 mm/hr 0.00 in0.0 mm
02:05 PM 91.0°F32.8°C 43.0°F6.1°C 19% 9.0 mph NNE14.5 kmh NNE 13.0 mph20.9 kmh 29.61 in1002.7 mb 0.00 in0.0 mm 0.00 in/hr0.0 mm/hr 0.00 in0.0 mm
02:00 PM 91.0°F32.8°C 43.0°F6.1°C 19% 8.0 mph N12.9 kmh N 13.0 mph20.9 kmh 29.61 in1002.7 mb 0.00 in0.0 mm 0.00 in/hr0.0 mm/hr 0.00 in0.0 mm
01:55 PM 91.0°F32.8°C 43.0°F6.1°C 19% 7.0 mph WNW11.3 kmh WNW 13.0 mph20.9 kmh 29.61 in1002.7 mb 0.00 in0.0 mm 0.00 in/hr0.0 mm/hr 0.00 in0.0 mm
01:50 PM 90.7°F32.6°C 41.3°F5.2°C 18% 10.0 mph NW16.1 kmh NW 13.0 mph20.9 kmh 29.61 in1002.7 mb 0.00 in0.0 mm 0.00 in/hr0.0 mm/hr 0.00 in0.0 mm
01:45 PM 90.7°F32.6°C 41.3°F5.2°C 18% 7.0 mph NW11.3 kmh NW 13.0 mph20.9 kmh 29.61 in1002.7 mb 0.00 in0.0 mm 0.00 in/hr0.0 mm/hr 0.00 in0.0 mm
01:40 PM 90.7°F32.6°C 39.9°F4.4°C 17% 9.0 mph NW14.5 kmh NW 14.0 mph22.5 kmh 29.61 in1002.7 mb 0.00 in0.0 mm 0.00 in/hr0.0 mm/hr 0.00 in0.0 mm
01:35 PM 90.5°F32.5°C 41.2°F5.1°C 18% 5.0 mph NW8.0 kmh NW 14.0 mph22.5 kmh 29.61 in1002.7 mb 0.00 in0.0 mm 0.00 in/hr0.0 mm/hr 0.00 in0.0 mm
01:30 PM 90.5°F32.5°C 41.2°F5.1°C 18% 9.0 mph WSW14.5 kmh WSW 15.0 mph24.1 kmh 29.61 in1002.7 mb 0.00 in0.0 mm 0.00 in/hr0.0 mm/hr 0.00 in0.0 mm
01:25 PM 90.5°F32.5°C 42.6°F5.9°C 19% 6.0 mph W9.7 kmh W 15.0 mph24.1 kmh 29.62 in1003.0 mb 0.00 in0.0 mm 0.00 in/hr0.0 mm/hr 0.00 in0.0 mm
01:20 PM 90.3°F32.4°C 42.4°F5.8°C 19% 11.0 mph NW17.7 kmh NW 15.0 mph24.1 kmh 29.62 in1003.0 mb 0.00 in0.0 mm 0.00 in/hr0.0 mm/hr 0.00 in0.0 mm
01:15 PM 90.3°F32.4°C 41.0°F5.0°C 18% 5.0 mph W8.0 kmh W 15.0 mph24.1 kmh 29.62 in1003.0 mb 0.00 in0.0 mm 0.00 in/hr0.0 mm/hr 0.00 in0.0 mm
01:10 PM 90.3°F32.4°C 42.4°F5.8°C 19% 11.0 mph WSW17.7 kmh WSW 13.0 mph20.9 kmh 29.62 in1003.0 mb 0.00 in0.0 mm 0.00 in/hr0.0 mm/hr 0.00 in0.0 mm
01:05 PM 90.1°F32.3°C 40.8°F4.9°C 18% 3.0 mph NW4.8 kmh NW 13.0 mph20.9 kmh 29.62 in1003.0 mb 0.00 in0.0 mm 0.00 in/hr0.0 mm/hr 0.00 in0.0 mm
01:00 PM 89.5°F31.9°C 41.8°F5.4°C 19% 3.0 mph W4.8 kmh W 13.0 mph20.9 kmh 29.62 in1003.0 mb 0.00 in0.0 mm 0.00 in/hr0.0 mm/hr 0.00 in0.0 mm
12:55 PM 89.3°F31.8°C 41.6°F5.3°C 19% 6.0 mph WSW9.7 kmh WSW 13.0 mph20.9 kmh 29.62 in1003.0 mb 0.00 in0.0 mm 0.00 in/hr0.0 mm/hr 0.00 in0.0 mm
12:50 PM 89.5°F31.9°C 41.8°F5.4°C 19% 7.0 mph NW11.3 kmh NW 13.0 mph20.9 kmh 29.62 in1003.0 mb 0.00 in0.0 mm 0.00 in/hr0.0 mm/hr 0.00 in0.0 mm
12:45 PM 89.5°F31.9°C 40.4°F4.7°C 18% 11.0 mph WNW17.7 kmh WNW 14.0 mph22.5 kmh 29.62 in1003.0 mb 0.00 in0.0 mm 0.00 in/hr0.0 mm/hr 0.00 in0.0 mm
12:40 PM 89.5°F31.9°C 40.4°F4.7°C 18% 7.0 mph NW11.3 kmh NW 14.0 mph22.5 kmh 29.63 in1003.4 mb 0.00 in0.0 mm 0.00 in/hr0.0 mm/hr 0.00 in0.0 mm
12:35 PM 89.5°F31.9°C 38.9°F3.8°C 17% 3.0 mph NW4.8 kmh NW 14.0 mph22.5 kmh 29.63 in1003.4 mb 0.00 in0.0 mm 0.00 in/hr0.0 mm/hr 0.00 in0.0 mm
12:30 PM 89.3°F31.8°C 40.2°F4.6°C 18% 4.0 mph W6.4 kmh W 14.0 mph22.5 kmh 29.63 in1003.4 mb 0.00 in0.0 mm 0.00 in/hr0.0 mm/hr 0.00 in0.0 mm
12:25 PM 89.3°F31.8°C 40.2°F4.6°C 18% 4.0 mph WSW6.4 kmh WSW 13.0 mph20.9 kmh 29.63 in1003.4 mb 0.00 in0.0 mm 0.00 in/hr0.0 mm/hr 0.00 in0.0 mm
12:20 PM 89.3°F31.8°C 38.7°F3.7°C 17% 10.0 mph WNW16.1 kmh WNW 13.0 mph20.9 kmh 29.63 in1003.4 mb 0.00 in0.0 mm 0.00 in/hr0.0 mm/hr 0.00 in0.0 mm
12:15 PM 89.0°F31.7°C 38.5°F3.6°C 17% 11.0 mph W17.7 kmh W 11.0 mph17.7 kmh 29.63 in1003.4 mb 0.00 in0.0 mm 0.00 in/hr0.0 mm/hr 0.00 in0.0 mm
12:10 PM 88.8°F31.6°C 38.3°F3.5°C 17% 4.0 mph SSW6.4 kmh SSW 11.0 mph17.7 kmh 29.63 in1003.4 mb 0.00 in0.0 mm 0.00 in/hr0.0 mm/hr 0.00 in0.0 mm
12:05 PM 88.8°F31.6°C 35.2°F1.8°C 15% 6.0 mph WNW9.7 kmh WNW 12.0 mph19.3 kmh 29.63 in1003.4 mb 0.00 in0.0 mm 0.00 in/hr0.0 mm/hr 0.00 in0.0 mm
12:00 PM 88.4°F31.3°C 36.5°F2.5°C 16% 7.0 mph W11.3 kmh W 12.0 mph19.3 kmh 29.63 in1003.4 mb 0.00 in0.0 mm 0.00 in/hr0.0 mm/hr 0.00 in0.0 mm
11:55 AM 88.4°F31.3°C 31.3°F-0.4°C 13% 9.0 mph W14.5 kmh W 12.0 mph19.3 kmh 29.64 in1003.7 mb 0.00 in0.0 mm 0.00 in/hr0.0 mm/hr 0.00 in0.0 mm
11:50 AM 88.2°F31.2°C 34.7°F1.5°C 15% 4.0 mph NW6.4 kmh NW 12.0 mph19.3 kmh 29.64 in1003.7 mb 0.00 in0.0 mm 0.00 in/hr0.0 mm/hr 0.00 in0.0 mm
11:45 AM 87.8°F31.0°C 36.0°F2.2°C 16% 6.0 mph NW9.7 kmh NW 10.0 mph16.1 kmh 29.64 in1003.7 mb 0.00 in0.0 mm 0.00 in/hr0.0 mm/hr 0.00 in0.0 mm
11:40 AM 87.4°F30.8°C 34.1°F1.2°C 15% 6.0 mph NW9.7 kmh NW 10.0 mph16.1 kmh 29.64 in1003.7 mb 0.00 in0.0 mm 0.00 in/hr0.0 mm/hr 0.00 in0.0 mm
11:35 AM 87.2°F30.7°C 37.0°F2.8°C 17% 5.0 mph NW8.0 kmh NW 13.0 mph20.9 kmh 29.64 in1003.7 mb 0.00 in0.0 mm 0.00 in/hr0.0 mm/hr 0.00 in0.0 mm
11:30 AM 87.4°F30.8°C 35.7°F2.1°C 16% 5.0 mph WSW8.0 kmh WSW 13.0 mph20.9 kmh 29.64 in1003.7 mb 0.00 in0.0 mm 0.00 in/hr0.0 mm/hr 0.00 in0.0 mm
11:25 AM 87.4°F30.8°C 37.2°F2.9°C 17% 3.0 mph WSW4.8 kmh WSW 13.0 mph20.9 kmh 29.64 in1003.7 mb 0.00 in0.0 mm 0.00 in/hr0.0 mm/hr 0.00 in0.0 mm
11:20 AM 87.4°F30.8°C 37.2°F2.9°C 17% 5.0 mph NW8.0 kmh NW 13.0 mph20.9 kmh 29.64 in1003.7 mb 0.00 in0.0 mm 0.00 in/hr0.0 mm/hr 0.00 in0.0 mm
11:15 AM 87.2°F30.7°C 35.5°F1.9°C 16% 5.0 mph WNW8.0 kmh WNW 10.0 mph16.1 kmh 29.64 in1003.7 mb 0.00 in0.0 mm 0.00 in/hr0.0 mm/hr 0.00 in0.0 mm
11:10 AM 86.5°F30.3°C 35.0°F1.7°C 16% 4.0 mph WSW6.4 kmh WSW 7.0 mph11.3 kmh 29.64 in1003.7 mb 0.00 in0.0 mm 0.00 in/hr0.0 mm/hr 0.00 in0.0 mm
11:05 AM 86.1°F30.1°C 34.6°F1.4°C 16% 2.0 mph WSW3.2 kmh WSW 10.0 mph16.1 kmh 29.64 in1003.7 mb 0.00 in0.0 mm 0.00 in/hr0.0 mm/hr 0.00 in0.0 mm
11:00 AM 85.9°F29.9°C 36.0°F2.2°C 17% 3.0 mph WSW4.8 kmh WSW 10.0 mph16.1 kmh 29.64 in1003.7 mb 0.00 in0.0 mm 0.00 in/hr0.0 mm/hr 0.00 in0.0 mm
10:55 AM 85.9°F29.9°C 34.5°F1.4°C 16% Calm Calm 10.0 mph16.1 kmh 29.64 in1003.7 mb 0.00 in0.0 mm 0.00 in/hr0.0 mm/hr 0.00 in0.0 mm
10:50 AM 85.7°F29.8°C 34.3°F1.3°C 16% 2.0 mph NW3.2 kmh NW 10.0 mph16.1 kmh 29.64 in1003.7 mb 0.00 in0.0 mm 0.00 in/hr0.0 mm/hr 0.00 in0.0 mm
10:45 AM 85.5°F29.7°C 35.7°F2.1°C 17% 3.0 mph NW4.8 kmh NW 9.0 mph14.5 kmh 29.64 in1003.7 mb 0.00 in0.0 mm 0.00 in/hr0.0 mm/hr 0.00 in0.0 mm
10:40 AM 84.9°F29.4°C 36.6°F2.6°C 18% 3.0 mph WSW4.8 kmh WSW 9.0 mph14.5 kmh 29.64 in1003.7 mb 0.00 in0.0 mm 0.00 in/hr0.0 mm/hr 0.00 in0.0 mm
10:35 AM 84.1°F28.9°C 37.4°F3.0°C 19% 4.0 mph WSW6.4 kmh WSW 9.0 mph14.5 kmh 29.64 in1003.7 mb 0.00 in0.0 mm 0.00 in/hr0.0 mm/hr 0.00 in0.0 mm
10:30 AM 84.0°F28.9°C 35.9°F2.2°C 18% 3.0 mph WSW4.8 kmh WSW 9.0 mph14.5 kmh 29.64 in1003.7 mb 0.00 in0.0 mm 0.00 in/hr0.0 mm/hr 0.00 in0.0 mm
10:25 AM 83.8°F28.8°C 37.1°F2.8°C 19% 3.0 mph WNW4.8 kmh WNW 6.0 mph9.7 kmh 29.65 in1004.1 mb 0.00 in0.0 mm 0.00 in/hr0.0 mm/hr 0.00 in0.0 mm
10:20 AM 83.2°F28.4°C 36.6°F2.6°C 19% 2.0 mph W3.2 kmh W 5.0 mph8.0 kmh 29.65 in1004.1 mb 0.00 in0.0 mm 0.00 in/hr0.0 mm/hr 0.00 in0.0 mm
10:15 AM 82.8°F28.2°C 36.3°F2.4°C 19% 1.0 mph NNW1.6 kmh NNW 7.0 mph11.3 kmh 29.65 in1004.1 mb 0.00 in0.0 mm 0.00 in/hr0.0 mm/hr 0.00 in0.0 mm
10:10 AM 82.6°F28.1°C 36.1°F2.3°C 19% 3.0 mph SW4.8 kmh SW 7.0 mph11.3 kmh 29.64 in1003.7 mb 0.00 in0.0 mm 0.00 in/hr0.0 mm/hr 0.00 in0.0 mm
10:05 AM 81.6°F27.6°C 37.9°F3.3°C 21% 3.0 mph SSW4.8 kmh SSW 10.0 mph16.1 kmh 29.64 in1003.7 mb 0.00 in0.0 mm 0.00 in/hr0.0 mm/hr 0.00 in0.0 mm
10:00 AM 81.4°F27.4°C 36.5°F2.5°C 20% 4.0 mph SSW6.4 kmh SSW 10.0 mph16.1 kmh 29.64 in1003.7 mb 0.00 in0.0 mm 0.00 in/hr0.0 mm/hr 0.00 in0.0 mm
09:55 AM 81.1°F27.3°C 36.2°F2.3°C 20% 1.0 mph W1.6 kmh W 10.0 mph16.1 kmh 29.65 in1004.1 mb 0.00 in0.0 mm 0.00 in/hr0.0 mm/hr 0.00 in0.0 mm
09:50 AM 80.7°F27.1°C 37.1°F2.8°C 21% 4.0 mph WSW6.4 kmh WSW 10.0 mph16.1 kmh 29.65 in1004.1 mb 0.00 in0.0 mm 0.00 in/hr0.0 mm/hr 0.00 in0.0 mm
09:45 AM 80.5°F26.9°C 38.1°F3.4°C 22% 4.0 mph S6.4 kmh S 7.0 mph11.3 kmh 29.65 in1004.1 mb 0.00 in0.0 mm 0.00 in/hr0.0 mm/hr 0.00 in0.0 mm
09:40 AM 80.1°F26.7°C 37.8°F3.2°C 22% 2.0 mph S3.2 kmh S 6.0 mph9.7 kmh 29.65 in1004.1 mb 0.00 in0.0 mm 0.00 in/hr0.0 mm/hr 0.00 in0.0 mm
09:35 AM 80.3°F26.8°C 38.0°F3.3°C 22% 2.0 mph SW3.2 kmh SW 6.0 mph9.7 kmh 29.65 in1004.1 mb 0.00 in0.0 mm 0.00 in/hr0.0 mm/hr 0.00 in0.0 mm
09:30 AM 80.3°F26.8°C 38.0°F3.3°C 22% 3.0 mph SSW4.8 kmh SSW 6.0 mph9.7 kmh 29.65 in1004.1 mb 0.00 in0.0 mm 0.00 in/hr0.0 mm/hr 0.00 in0.0 mm
09:25 AM 79.9°F26.6°C 36.5°F2.5°C 21% 3.0 mph NW4.8 kmh NW 6.0 mph9.7 kmh 29.65 in1004.1 mb 0.00 in0.0 mm 0.00 in/hr0.0 mm/hr 0.00 in0.0 mm
09:20 AM 79.4°F26.3°C 37.2°F2.9°C 22% 2.0 mph WNW3.2 kmh WNW 5.0 mph8.0 kmh 29.65 in1004.1 mb 0.00 in0.0 mm 0.00 in/hr0.0 mm/hr 0.00 in0.0 mm
09:15 AM 79.0°F26.1°C 36.9°F2.7°C 22% 1.0 mph WNW1.6 kmh WNW 5.0 mph8.0 kmh 29.65 in1004.1 mb 0.00 in0.0 mm 0.00 in/hr0.0 mm/hr 0.00 in0.0 mm
09:10 AM 78.6°F25.9°C 36.6°F2.6°C 22% 1.0 mph NW1.6 kmh NW 5.0 mph8.0 kmh 29.64 in1003.7 mb 0.00 in0.0 mm 0.00 in/hr0.0 mm/hr 0.00 in0.0 mm
09:05 AM 78.1°F25.6°C 37.3°F2.9°C 23% 2.0 mph NW3.2 kmh NW 4.0 mph6.4 kmh 29.64 in1003.7 mb 0.00 in0.0 mm 0.00 in/hr0.0 mm/hr 0.00 in0.0 mm
09:00 AM 77.0°F25.0°C 37.4°F3.0°C 24% 2.0 mph SW3.2 kmh SW 3.0 mph4.8 kmh 29.64 in1003.7 mb 0.00 in0.0 mm 0.00 in/hr0.0 mm/hr 0.00 in0.0 mm
08:55 AM 75.8°F24.3°C 38.5°F3.6°C 26% 1.0 mph S1.6 kmh S 2.0 mph3.2 kmh 29.65 in1004.1 mb 0.00 in0.0 mm 0.00 in/hr0.0 mm/hr 0.00 in0.0 mm
08:50 AM 74.7°F23.7°C 39.4°F4.1°C 28% 1.0 mph SSE1.6 kmh SSE 3.0 mph4.8 kmh 29.65 in1004.1 mb 0.00 in0.0 mm 0.00 in/hr0.0 mm/hr 0.00 in0.0 mm
08:45 AM 73.9°F23.3°C 37.8°F3.2°C 27% 1.0 mph SSE1.6 kmh SSE 3.0 mph4.8 kmh 29.65 in1004.1 mb 0.00 in0.0 mm 0.00 in/hr0.0 mm/hr 0.00 in0.0 mm
08:40 AM 72.7°F22.6°C 37.7°F3.2°C 28% 1.0 mph SSE1.6 kmh SSE 3.0 mph4.8 kmh 29.66 in1004.4 mb 0.00 in0.0 mm 0.00 in/hr0.0 mm/hr 0.00 in0.0 mm
08:35 AM 71.3°F21.8°C 37.4°F3.0°C 29% 1.0 mph SSE1.6 kmh SSE 3.0 mph4.8 kmh 29.66 in1004.4 mb 0.00 in0.0 mm 0.00 in/hr0.0 mm/hr 0.00 in0.0 mm
08:30 AM 69.6°F20.9°C 37.6°F3.1°C 31% 1.0 mph ENE1.6 kmh ENE 2.0 mph3.2 kmh 29.66 in1004.4 mb 0.00 in0.0 mm 0.00 in/hr0.0 mm/hr 0.00 in0.0 mm
08:25 AM 68.8°F20.4°C 36.9°F2.7°C 31% Calm Calm 2.0 mph3.2 kmh 29.66 in1004.4 mb 0.00 in0.0 mm 0.00 in/hr0.0 mm/hr 0.00 in0.0 mm
08:20 AM 68.1°F20.1°C 36.3°F2.4°C 31% Calm Calm 3.0 mph4.8 kmh 29.66 in1004.4 mb 0.00 in0.0 mm 0.00 in/hr0.0 mm/hr 0.00 in0.0 mm
08:15 AM 67.3°F19.6°C 36.4°F2.4°C 32% 2.0 mph NE3.2 kmh NE 3.0 mph4.8 kmh 29.66 in1004.4 mb 0.00 in0.0 mm 0.00 in/hr0.0 mm/hr 0.00 in0.0 mm
08:10 AM 66.3°F19.1°C 38.5°F3.6°C 36% 1.0 mph NE1.6 kmh NE 2.0 mph3.2 kmh 29.66 in1004.4 mb 0.00 in0.0 mm 0.00 in/hr0.0 mm/hr 0.00 in0.0 mm
08:05 AM 65.8°F18.8°C 38.1°F3.4°C 36% Calm Calm 1.0 mph1.6 kmh 29.66 in1004.4 mb 0.00 in0.0 mm 0.00 in/hr0.0 mm/hr 0.00 in0.0 mm
08:00 AM 65.3°F18.5°C 39.0°F3.9°C 38% Calm Calm -- 29.66 in1004.4 mb 0.00 in0.0 mm 0.00 in/hr0.0 mm/hr 0.00 in0.0 mm
07:55 AM 64.8°F18.2°C 37.9°F3.3°C 37% Calm Calm 4.0 mph6.4 kmh 29.66 in1004.4 mb 0.00 in0.0 mm 0.00 in/hr0.0 mm/hr 0.00 in0.0 mm
07:50 AM 64.2°F17.9°C 38.1°F3.4°C 38% 2.0 mph NE3.2 kmh NE 4.0 mph6.4 kmh 29.66 in1004.4 mb 0.00 in0.0 mm 0.00 in/hr0.0 mm/hr 0.00 in0.0 mm
07:45 AM 63.4°F17.4°C 38.0°F3.3°C 39% 1.0 mph NE1.6 kmh NE 4.0 mph6.4 kmh 29.66 in1004.4 mb 0.00 in0.0 mm 0.00 in/hr0.0 mm/hr 0.00 in0.0 mm
07:40 AM 62.7°F17.1°C 38.7°F3.7°C 41% 2.0 mph NE3.2 kmh NE 4.0 mph6.4 kmh 29.66 in1004.4 mb 0.00 in0.0 mm 0.00 in/hr0.0 mm/hr 0.00 in0.0 mm
07:35 AM 62.0°F16.7°C 39.2°F4.0°C 43% 2.0 mph NE3.2 kmh NE 3.0 mph4.8 kmh 29.66 in1004.4 mb 0.00 in0.0 mm 0.00 in/hr0.0 mm/hr 0.00 in0.0 mm
07:30 AM 61.6°F16.4°C 39.5°F4.2°C 44% 2.0 mph NE3.2 kmh NE 3.0 mph4.8 kmh 29.66 in1004.4 mb 0.00 in0.0 mm 0.00 in/hr0.0 mm/hr 0.00 in0.0 mm
07:25 AM 61.6°F16.4°C 39.5°F4.2°C 44% Calm Calm 2.0 mph3.2 kmh 29.67 in1004.7 mb 0.00 in0.0 mm 0.00 in/hr0.0 mm/hr 0.00 in0.0 mm
07:20 AM 61.6°F16.4°C 37.7°F3.2°C 41% 1.0 mph NE1.6 kmh NE 2.0 mph3.2 kmh 29.67 in1004.7 mb 0.00 in0.0 mm 0.00 in/hr0.0 mm/hr 0.00 in0.0 mm
07:15 AM 61.5°F16.4°C 36.3°F2.4°C 39% Calm Calm 1.0 mph1.6 kmh 29.67 in1004.7 mb 0.00 in0.0 mm 0.00 in/hr0.0 mm/hr 0.00 in0.0 mm
07:10 AM 61.3°F16.3°C 35.5°F1.9°C 38% Calm Calm -- 29.65 in1004.1 mb 0.00 in0.0 mm 0.00 in/hr0.0 mm/hr 0.00 in0.0 mm
07:05 AM 61.5°F16.4°C 35.7°F2.1°C 38% Calm Calm -- 29.65 in1004.1 mb 0.00 in0.0 mm 0.00 in/hr0.0 mm/hr 0.00 in0.0 mm
07:00 AM 61.3°F16.3°C 35.5°F1.9°C 38% Calm Calm -- 29.65 in1004.1 mb 0.00 in0.0 mm 0.00 in/hr0.0 mm/hr 0.00 in0.0 mm
06:55 AM 61.2°F16.2°C 34.7°F1.5°C 37% Calm Calm 5.0 mph8.0 kmh 29.66 in1004.4 mb 0.00 in0.0 mm 0.00 in/hr0.0 mm/hr 0.00 in0.0 mm
06:50 AM 60.1°F15.6°C 35.7°F2.1°C 40% 3.0 mph NE4.8 kmh NE 4.0 mph6.4 kmh 29.66 in1004.4 mb 0.00 in0.0 mm 0.00 in/hr0.0 mm/hr 0.00 in0.0 mm
06:45 AM 58.9°F14.9°C 38.2°F3.4°C 46% 2.0 mph NE3.2 kmh NE 4.0 mph6.4 kmh 29.66 in1004.4 mb 0.00 in0.0 mm 0.00 in/hr0.0 mm/hr 0.00 in0.0 mm
06:40 AM 58.4°F14.7°C 37.7°F3.2°C 46% 1.0 mph NE1.6 kmh NE 1.0 mph1.6 kmh 29.66 in1004.4 mb 0.00 in0.0 mm 0.00 in/hr0.0 mm/hr 0.00 in0.0 mm
06:35 AM 58.4°F14.7°C 38.2°F3.4°C 47% Calm Calm -- 29.66 in1004.4 mb 0.00 in0.0 mm 0.00 in/hr0.0 mm/hr 0.00 in0.0 mm
06:30 AM 58.4°F14.7°C 38.2°F3.4°C 47% Calm Calm 1.0 mph1.6 kmh 29.66 in1004.4 mb 0.00 in0.0 mm 0.00 in/hr0.0 mm/hr 0.00 in0.0 mm
06:25 AM 58.3°F14.6°C 38.7°F3.7°C 48% Calm Calm 1.0 mph1.6 kmh 29.66 in1004.4 mb 0.00 in0.0 mm 0.00 in/hr0.0 mm/hr 0.00 in0.0 mm
06:20 AM 58.3°F14.6°C 39.2°F4.0°C 49% Calm Calm -- 29.66 in1004.4 mb 0.00 in0.0 mm 0.00 in/hr0.0 mm/hr 0.00 in0.0 mm
06:15 AM 58.4°F14.7°C 38.8°F3.8°C 48% Calm Calm 1.0 mph1.6 kmh 29.66 in1004.4 mb 0.00 in0.0 mm 0.00 in/hr0.0 mm/hr 0.00 in0.0 mm
06:10 AM 58.4°F14.7°C 39.3°F4.1°C 49% 1.0 mph NE1.6 kmh NE 2.0 mph3.2 kmh 29.63 in1003.4 mb 0.00 in0.0 mm 0.00 in/hr0.0 mm/hr 0.00 in0.0 mm
06:05 AM 58.4°F14.7°C 38.8°F3.8°C 48% Calm Calm -- 29.63 in1003.4 mb 0.00 in0.0 mm 0.00 in/hr0.0 mm/hr 0.00 in0.0 mm
06:00 AM 58.6°F14.8°C 38.4°F3.6°C 47% Calm Calm -- 29.63 in1003.4 mb 0.00 in0.0 mm 0.00 in/hr0.0 mm/hr 0.00 in0.0 mm
05:55 AM 58.7°F14.8°C 38.0°F3.3°C 46% Calm Calm -- 29.63 in1003.4 mb 0.00 in0.0 mm 0.00 in/hr0.0 mm/hr 0.00 in0.0 mm
05:50 AM 58.9°F14.9°C 38.2°F3.4°C 46% Calm Calm -- 29.63 in1003.4 mb 0.00 in0.0 mm 0.00 in/hr0.0 mm/hr 0.00 in0.0 mm
05:45 AM 58.9°F14.9°C 38.2°F3.4°C 46% Calm Calm 2.0 mph3.2 kmh 29.63 in1003.4 mb 0.00 in0.0 mm 0.00 in/hr0.0 mm/hr 0.00 in0.0 mm
05:40 AM 58.9°F14.9°C 37.6°F3.1°C 45% 2.0 mph NE3.2 kmh NE 2.0 mph3.2 kmh 29.62 in1003.0 mb 0.00 in0.0 mm 0.00 in/hr0.0 mm/hr 0.00 in0.0 mm
05:35 AM 59.0°F15.0°C 38.2°F3.4°C 46% Calm Calm -- 29.62 in1003.0 mb 0.00 in0.0 mm 0.00 in/hr0.0 mm/hr 0.00 in0.0 mm
05:30 AM 59.2°F15.1°C 38.4°F3.6°C 46% Calm Calm 3.0 mph4.8 kmh 29.62 in1003.0 mb 0.00 in0.0 mm 0.00 in/hr0.0 mm/hr 0.00 in0.0 mm
05:25 AM 59.3°F15.2°C 37.4°F3.0°C 44% 2.0 mph NE3.2 kmh NE 3.0 mph4.8 kmh 29.61 in1002.7 mb 0.00 in0.0 mm 0.00 in/hr0.0 mm/hr 0.00 in0.0 mm
05:20 AM 59.5°F15.3°C 38.1°F3.4°C 45% Calm Calm -- 29.61 in1002.7 mb 0.00 in0.0 mm 0.00 in/hr0.0 mm/hr 0.00 in0.0 mm
05:15 AM 59.8°F15.4°C 37.8°F3.2°C 44% 2.0 mph NE3.2 kmh NE 2.0 mph3.2 kmh 29.61 in1002.7 mb 0.00 in0.0 mm 0.00 in/hr0.0 mm/hr 0.00 in0.0 mm
05:10 AM 60.1°F15.6°C 36.9°F2.7°C 42% Calm Calm -- 29.61 in1002.7 mb 0.00 in0.0 mm 0.00 in/hr0.0 mm/hr 0.00 in0.0 mm
05:05 AM 60.4°F15.8°C 37.2°F2.9°C 42% Calm Calm -- 29.61 in1002.7 mb 0.00 in0.0 mm 0.00 in/hr0.0 mm/hr 0.00 in0.0 mm
05:00 AM 60.5°F15.8°C 36.7°F2.6°C 41% Calm Calm 1.0 mph1.6 kmh 29.61 in1002.7 mb 0.00 in0.0 mm 0.00 in/hr0.0 mm/hr 0.00 in0.0 mm
04:55 AM 60.5°F15.8°C 36.7°F2.6°C 41% 1.0 mph NE1.6 kmh NE 3.0 mph4.8 kmh 29.61 in1002.7 mb 0.00 in0.0 mm 0.00 in/hr0.0 mm/hr 0.00 in0.0 mm
04:50 AM 60.5°F15.8°C 37.3°F2.9°C 42% 2.0 mph NE3.2 kmh NE 4.0 mph6.4 kmh 29.61 in1002.7 mb 0.00 in0.0 mm 0.00 in/hr0.0 mm/hr 0.00 in0.0 mm
04:45 AM 60.2°F15.7°C 38.2°F3.4°C 44% 3.0 mph NE4.8 kmh NE 4.0 mph6.4 kmh 29.61 in1002.7 mb 0.00 in0.0 mm 0.00 in/hr0.0 mm/hr 0.00 in0.0 mm
04:40 AM 59.9°F15.5°C 39.6°F4.2°C 47% 2.0 mph NE3.2 kmh NE 4.0 mph6.4 kmh 29.61 in1002.7 mb 0.00 in0.0 mm 0.00 in/hr0.0 mm/hr 0.00 in0.0 mm
04:35 AM 59.9°F15.5°C 40.2°F4.6°C 48% 4.0 mph NE6.4 kmh NE 4.0 mph6.4 kmh 29.61 in1002.7 mb 0.00 in0.0 mm 0.00 in/hr0.0 mm/hr 0.00 in0.0 mm
04:30 AM 59.9°F15.5°C 39.1°F3.9°C 46% 1.0 mph NE1.6 kmh NE 2.0 mph3.2 kmh 29.61 in1002.7 mb 0.00 in0.0 mm 0.00 in/hr0.0 mm/hr 0.00 in0.0 mm
04:25 AM 60.1°F15.6°C 39.8°F4.3°C 47% Calm Calm -- 29.61 in1002.7 mb 0.00 in0.0 mm 0.00 in/hr0.0 mm/hr 0.00 in0.0 mm
04:20 AM 60.1°F15.6°C 39.8°F4.3°C 47% 2.0 mph NE3.2 kmh NE 2.0 mph3.2 kmh 29.61 in1002.7 mb 0.00 in0.0 mm 0.00 in/hr0.0 mm/hr 0.00 in0.0 mm
04:15 AM 60.2°F15.7°C 40.4°F4.7°C 48% Calm Calm -- 29.61 in1002.7 mb 0.00 in0.0 mm 0.00 in/hr0.0 mm/hr 0.00 in0.0 mm
04:10 AM 60.2°F15.7°C 41.0°F5.0°C 49% Calm Calm 2.0 mph3.2 kmh 29.61 in1002.7 mb 0.00 in0.0 mm 0.00 in/hr0.0 mm/hr 0.00 in0.0 mm
04:05 AM 60.2°F15.7°C 41.0°F5.0°C 49% 1.0 mph NE1.6 kmh NE 2.0 mph3.2 kmh 29.61 in1002.7 mb 0.00 in0.0 mm 0.00 in/hr0.0 mm/hr 0.00 in0.0 mm
04:00 AM 60.4°F15.8°C 41.1°F5.1°C 49% Calm Calm 1.0 mph1.6 kmh 29.61 in1002.7 mb 0.00 in0.0 mm 0.00 in/hr0.0 mm/hr 0.00 in0.0 mm
03:55 AM 60.4°F15.8°C 41.1°F5.1°C 49% Calm Calm 3.0 mph4.8 kmh 29.61 in1002.7 mb 0.00 in0.0 mm 0.00 in/hr0.0 mm/hr 0.00 in0.0 mm
03:50 AM 60.5°F15.8°C 40.7°F4.8°C 48% 1.0 mph NE1.6 kmh NE 3.0 mph4.8 kmh 29.61 in1002.7 mb 0.00 in0.0 mm 0.00 in/hr0.0 mm/hr 0.00 in0.0 mm
03:45 AM 60.7°F15.9°C 40.3°F4.6°C 47% 2.0 mph NE3.2 kmh NE 3.0 mph4.8 kmh 29.61 in1002.7 mb 0.00 in0.0 mm 0.00 in/hr0.0 mm/hr 0.00 in0.0 mm
03:40 AM 61.0°F16.1°C 40.6°F4.8°C 47% 2.0 mph NE3.2 kmh NE 2.0 mph3.2 kmh 29.61 in1002.7 mb 0.00 in0.0 mm 0.00 in/hr0.0 mm/hr 0.00 in0.0 mm
03:35 AM 61.2°F16.2°C 40.8°F4.9°C 47% Calm Calm -- 29.61 in1002.7 mb 0.00 in0.0 mm 0.00 in/hr0.0 mm/hr 0.00 in0.0 mm
03:30 AM 61.2°F16.2°C 41.3°F5.2°C 48% Calm Calm 1.0 mph1.6 kmh 29.61 in1002.7 mb 0.00 in0.0 mm 0.00 in/hr0.0 mm/hr 0.00 in0.0 mm
03:25 AM 61.3°F16.3°C 42.0°F5.6°C 49% Calm Calm 3.0 mph4.8 kmh 29.60 in1002.4 mb 0.00 in0.0 mm 0.00 in/hr0.0 mm/hr 0.00 in0.0 mm
03:20 AM 61.3°F16.3°C 42.0°F5.6°C 49% 2.0 mph NE3.2 kmh NE 3.0 mph4.8 kmh 29.60 in1002.4 mb 0.00 in0.0 mm 0.00 in/hr0.0 mm/hr 0.00 in0.0 mm
03:15 AM 61.6°F16.4°C 41.2°F5.1°C 47% Calm Calm 1.0 mph1.6 kmh 29.60 in1002.4 mb 0.00 in0.0 mm 0.00 in/hr0.0 mm/hr 0.00 in0.0 mm
03:10 AM 62.0°F16.7°C 41.5°F5.3°C 47% Calm Calm -- 29.61 in1002.7 mb 0.00 in0.0 mm 0.00 in/hr0.0 mm/hr 0.00 in0.0 mm
03:05 AM 62.1°F16.7°C 41.1°F5.1°C 46% Calm Calm -- 29.61 in1002.7 mb 0.00 in0.0 mm 0.00 in/hr0.0 mm/hr 0.00 in0.0 mm
03:00 AM 62.1°F16.7°C 41.6°F5.3°C 47% 2.0 mph NE3.2 kmh NE 2.0 mph3.2 kmh 29.61 in1002.7 mb 0.00 in0.0 mm 0.00 in/hr0.0 mm/hr 0.00 in0.0 mm
02:55 AM 61.8°F16.6°C 41.9°F5.5°C 48% 2.0 mph NE3.2 kmh NE 4.0 mph6.4 kmh 29.61 in1002.7 mb 0.00 in0.0 mm 0.00 in/hr0.0 mm/hr 0.00 in0.0 mm
02:50 AM 61.5°F16.4°C 43.2°F6.2°C 51% 2.0 mph NNE3.2 kmh NNE 3.0 mph4.8 kmh 29.61 in1002.7 mb 0.00 in0.0 mm 0.00 in/hr0.0 mm/hr 0.00 in0.0 mm
02:45 AM 61.3°F16.3°C 43.5°F6.4°C 52% Calm Calm 2.0 mph3.2 kmh 29.61 in1002.7 mb 0.00 in0.0 mm 0.00 in/hr0.0 mm/hr 0.00 in0.0 mm
02:40 AM 61.3°F16.3°C 43.5°F6.4°C 52% Calm Calm -- 29.61 in1002.7 mb 0.00 in0.0 mm 0.00 in/hr0.0 mm/hr 0.00 in0.0 mm
02:35 AM 61.5°F16.4°C 42.7°F5.9°C 50% Calm Calm -- 29.61 in1002.7 mb 0.00 in0.0 mm 0.00 in/hr0.0 mm/hr 0.00 in0.0 mm
02:30 AM 61.6°F16.4°C 42.8°F6.0°C 50% Calm Calm -- 29.61 in1002.7 mb 0.00 in0.0 mm 0.00 in/hr0.0 mm/hr 0.00 in0.0 mm
02:25 AM 61.8°F16.6°C 43.0°F6.1°C 50% Calm Calm 2.0 mph3.2 kmh 29.61 in1002.7 mb 0.00 in0.0 mm 0.00 in/hr0.0 mm/hr 0.00 in0.0 mm
02:20 AM 62.0°F16.7°C 43.1°F6.2°C 50% Calm Calm 2.0 mph3.2 kmh 29.61 in1002.7 mb 0.00 in0.0 mm 0.00 in/hr0.0 mm/hr 0.00 in0.0 mm
02:15 AM 62.3°F16.8°C 43.4°F6.3°C 50% 1.0 mph NNE1.6 kmh NNE 1.0 mph1.6 kmh 29.61 in1002.7 mb 0.00 in0.0 mm 0.00 in/hr0.0 mm/hr 0.00 in0.0 mm
02:10 AM 62.6°F17.0°C 43.7°F6.5°C 50% Calm Calm -- 29.62 in1003.0 mb 0.00 in0.0 mm 0.00 in/hr0.0 mm/hr 0.00 in0.0 mm
02:05 AM 62.9°F17.2°C 44.0°F6.7°C 50% 1.0 mph NNE1.6 kmh NNE 2.0 mph3.2 kmh 29.62 in1003.0 mb 0.00 in0.0 mm 0.00 in/hr0.0 mm/hr 0.00 in0.0 mm
02:00 AM 63.1°F17.3°C 44.2°F6.8°C 50% 1.0 mph NNE1.6 kmh NNE 4.0 mph6.4 kmh 29.62 in1003.0 mb 0.00 in0.0 mm 0.00 in/hr0.0 mm/hr 0.00 in0.0 mm
01:55 AM 63.2°F17.3°C 44.2°F6.8°C 50% 2.0 mph NE3.2 kmh NE 4.0 mph6.4 kmh 29.61 in1002.7 mb 0.00 in0.0 mm 0.00 in/hr0.0 mm/hr 0.00 in0.0 mm
01:50 AM 63.4°F17.4°C 45.0°F7.2°C 51% 4.0 mph NE6.4 kmh NE 4.0 mph6.4 kmh 29.61 in1002.7 mb 0.00 in0.0 mm 0.00 in/hr0.0 mm/hr 0.00 in0.0 mm
01:45 AM 63.4°F17.4°C 45.5°F7.5°C 52% 3.0 mph N4.8 kmh N 4.0 mph6.4 kmh 29.61 in1002.7 mb 0.00 in0.0 mm 0.00 in/hr0.0 mm/hr 0.00 in0.0 mm
01:40 AM 63.4°F17.4°C 45.5°F7.5°C 52% 2.0 mph N3.2 kmh N 4.0 mph6.4 kmh 29.61 in1002.7 mb 0.00 in0.0 mm 0.00 in/hr0.0 mm/hr 0.00 in0.0 mm
01:35 AM 63.2°F17.3°C 45.3°F7.4°C 52% 1.0 mph N1.6 kmh N 3.0 mph4.8 kmh 29.61 in1002.7 mb 0.00 in0.0 mm 0.00 in/hr0.0 mm/hr 0.00 in0.0 mm
01:30 AM 63.2°F17.3°C 45.8°F7.7°C 53% Calm Calm 2.0 mph3.2 kmh 29.61 in1002.7 mb 0.00 in0.0 mm 0.00 in/hr0.0 mm/hr 0.00 in0.0 mm
01:25 AM 63.4°F17.4°C 46.0°F7.8°C 53% 1.0 mph N1.6 kmh N 1.0 mph1.6 kmh 29.61 in1002.7 mb 0.00 in0.0 mm 0.00 in/hr0.0 mm/hr 0.00 in0.0 mm
01:20 AM 63.4°F17.4°C 46.0°F7.8°C 53% Calm Calm 3.0 mph4.8 kmh 29.61 in1002.7 mb 0.00 in0.0 mm 0.00 in/hr0.0 mm/hr 0.00 in0.0 mm
01:15 AM 63.5°F17.5°C 46.6°F8.1°C 54% Calm Calm 3.0 mph4.8 kmh 29.61 in1002.7 mb 0.00 in0.0 mm 0.00 in/hr0.0 mm/hr 0.00 in0.0 mm
01:10 AM 63.5°F17.5°C 46.6°F8.1°C 54% 1.0 mph N1.6 kmh N 3.0 mph4.8 kmh 29.61 in1002.7 mb 0.00 in0.0 mm 0.00 in/hr0.0 mm/hr 0.00 in0.0 mm
01:05 AM 63.7°F17.6°C 47.2°F8.4°C 55% Calm Calm 2.0 mph3.2 kmh 29.61 in1002.7 mb 0.00 in0.0 mm 0.00 in/hr0.0 mm/hr 0.00 in0.0 mm
01:00 AM 63.9°F17.7°C 47.4°F8.6°C 55% Calm Calm 2.0 mph3.2 kmh 29.61 in1002.7 mb 0.00 in0.0 mm 0.00 in/hr0.0 mm/hr 0.00 in0.0 mm
12:55 AM 63.9°F17.7°C 47.4°F8.6°C 55% 2.0 mph N3.2 kmh N 2.0 mph3.2 kmh 29.61 in1002.7 mb 0.00 in0.0 mm 0.00 in/hr0.0 mm/hr 0.00 in0.0 mm
12:50 AM 64.2°F17.9°C 47.7°F8.7°C 55% Calm Calm -- 29.61 in1002.7 mb 0.00 in0.0 mm 0.00 in/hr0.0 mm/hr 0.00 in0.0 mm
12:45 AM 64.5°F18.1°C 48.0°F8.9°C 55% 1.0 mph N1.6 kmh N 2.0 mph3.2 kmh 29.61 in1002.7 mb 0.00 in0.0 mm 0.00 in/hr0.0 mm/hr 0.00 in0.0 mm
12:40 AM 64.8°F18.2°C 48.2°F9.0°C 55% 1.0 mph N1.6 kmh N 2.0 mph3.2 kmh 29.60 in1002.4 mb 0.00 in0.0 mm 0.00 in/hr0.0 mm/hr 0.00 in0.0 mm
12:35 AM 65.2°F18.4°C 48.1°F8.9°C 54% Calm Calm -- 29.60 in1002.4 mb 0.00 in0.0 mm 0.00 in/hr0.0 mm/hr 0.00 in0.0 mm
12:30 AM 65.6°F18.7°C 48.5°F9.2°C 54% 1.0 mph N1.6 kmh N 1.0 mph1.6 kmh 29.60 in1002.4 mb 0.00 in0.0 mm 0.00 in/hr0.0 mm/hr 0.00 in0.0 mm
12:25 AM 66.0°F18.9°C 49.4°F9.7°C 55% Calm Calm 3.0 mph4.8 kmh 29.60 in1002.4 mb 0.00 in0.0 mm 0.00 in/hr0.0 mm/hr 0.00 in0.0 mm
12:20 AM 66.3°F19.1°C 49.6°F9.8°C 55% 2.0 mph N3.2 kmh N 2.0 mph3.2 kmh 29.60 in1002.4 mb 0.00 in0.0 mm 0.00 in/hr0.0 mm/hr 0.00 in0.0 mm
12:15 AM 66.8°F19.3°C 49.6°F9.8°C 54% Calm Calm 3.0 mph4.8 kmh 29.60 in1002.4 mb 0.00 in0.0 mm 0.00 in/hr0.0 mm/hr 0.00 in0.0 mm
12:10 AM 67.1°F19.5°C 49.9°F9.9°C 54% Calm Calm 4.0 mph6.4 kmh 29.60 in1002.4 mb 0.00 in0.0 mm 0.00 in/hr0.0 mm/hr 0.00 in0.0 mm
12:05 AM 67.1°F19.5°C 49.9°F9.9°C 54% 2.0 mph NNW3.2 kmh NNW 4.0 mph6.4 kmh 29.60 in1002.4 mb 0.00 in0.0 mm 0.00 in/hr0.0 mm/hr 0.00 in0.0 mm
12:00 AM 67.3°F19.6°C 50.1°F10.1°C 54% Calm Calm 3.0 mph4.8 kmh 29.60 in1002.4 mb 0.00 in0.0 mm 0.00 in/hr0.0 mm/hr 0.00 in0.0 mm